Time;durP1;ratioP1;P1;durP2;ratioP2;P2;SDS_P1;SDS_P2;PMS_P1;PMS_P2;Temp;Humidity;BMP_temperature;BMP_pressure;BME280_temperature;BME280_humidity;BME280_pressure;Samples;Min_cycle;Max_cycle;Signal;HPM_P1;HPM_P2
2023/08/17 00:02:17;;;;;;;12.45;3.63;;;;;;;18.24;100.00;101797.94;5109957;28;20031;-77
2023/08/17 00:04:42;;;;;;;13.80;3.67;;;;;;;18.22;99.72;101802.69;5092116;28;20016;-77
2023/08/17 00:07:08;;;;;;;15.05;4.00;;;;;;;18.21;100.00;101803.69;5087944;28;20020;-77
2023/08/17 00:09:33;;;;;;;11.73;3.67;;;;;;;18.20;100.00;101793.78;5110819;28;20032;-77
2023/08/17 00:11:59;;;;;;;12.77;3.88;;;;;;;18.20;100.00;101796.50;5088939;28;20502;-77
2023/08/17 00:14:25;;;;;;;14.38;3.92;;;;;;;18.19;98.62;101790.22;5107092;28;20051;-78
2023/08/17 00:16:50;;;;;;;10.98;3.65;;;;;;;18.19;100.00;101786.66;5105411;28;20032;-77
2023/08/17 00:19:16;;;;;;;9.02;3.58;;;;;;;18.17;100.00;101786.78;5102998;28;20423;-77
2023/08/17 00:21:42;;;;;;;7.55;3.33;;;;;;;18.16;99.64;101788.63;5091954;28;20023;-77
2023/08/17 00:24:08;;;;;;;10.95;3.95;;;;;;;18.15;99.14;101789.63;5102558;28;20034;-77
2023/08/17 00:26:33;;;;;;;9.68;3.67;;;;;;;18.14;99.30;101787.91;5112295;28;20023;-77
2023/08/17 00:28:58;;;;;;;9.20;3.85;;;;;;;18.14;100.00;101785.19;5106952;28;20032;-74
2023/08/17 00:31:24;;;;;;;12.38;3.83;;;;;;;18.12;99.52;101781.72;5083458;28;20049;-74
2023/08/17 00:33:49;;;;;;;13.32;4.32;;;;;;;18.07;99.36;101781.31;5084276;28;20110;-75
2023/08/17 00:36:14;;;;;;;7.57;3.30;;;;;;;18.04;99.58;101786.16;5090826;28;20057;-74
2023/08/17 00:38:40;;;;;;;12.07;3.85;;;;;;;18.00;100.00;101785.59;5113951;28;20137;-74
2023/08/17 00:41:06;;;;;;;11.32;3.67;;;;;;;17.95;100.00;101785.13;5093071;27;20028;-75
2023/08/17 00:43:31;;;;;;;10.57;3.53;;;;;;;17.91;100.00;101783.69;5112443;27;20126;-74
2023/08/17 00:45:56;;;;;;;12.38;3.90;;;;;;;17.87;100.00;101780.34;5115760;28;20065;-74
2023/08/17 00:48:22;;;;;;;12.10;3.90;;;;;;;17.82;100.00;101785.34;5096901;28;20027;-74
2023/08/17 00:50:50;;;;;;;12.85;3.78;;;;;;;17.77;100.00;101784.88;5089886;28;20380;-74
2023/08/17 00:53:16;;;;;;;9.65;3.45;;;;;;;17.78;100.00;101786.63;5116382;28;20107;-74
2023/08/17 00:55:42;;;;;;;13.38;4.03;;;;;;;17.75;100.00;101793.19;5098306;28;20016;-75
2023/08/17 00:58:07;;;;;;;10.90;3.58;;;;;;;17.76;100.00;101794.91;5089622;28;20015;-75
2023/08/17 01:00:32;;;;;;;11.13;3.70;;;;;;;17.73;100.00;101800.63;5098715;28;20027;-75
2023/08/17 01:02:58;;;;;;;12.77;4.03;;;;;;;17.71;100.00;101802.59;5098969;28;20024;-75
2023/08/17 01:05:23;;;;;;;9.70;3.75;;;;;;;17.68;100.00;101802.88;5114431;28;20102;-75
2023/08/17 01:07:49;;;;;;;11.18;4.00;;;;;;;17.65;100.00;101803.16;5102806;27;20526;-74
2023/08/17 01:10:15;;;;;;;14.93;3.90;;;;;;;17.66;100.00;101807.59;5096027;28;20031;-75
2023/08/17 01:13:02;;;;;;;10.85;4.10;;;;;;;17.67;100.00;101801.16;5113639;28;20102;-74
2023/08/17 01:15:34;;;;;;;12.88;3.88;;;;;;;17.66;100.00;101794.00;5106339;28;20030;-75
2023/08/17 01:18:40;;;;;;;15.05;4.53;;;;;;;17.69;100.00;101784.69;5104615;28;20031;-74
2023/08/17 01:21:11;;;;;;;11.38;4.18;;;;;;;17.67;100.00;101787.56;5108204;28;20027;-75
2023/08/17 01:23:37;;;;;;;8.50;3.35;;;;;;;17.64;100.00;101791.44;5093100;28;20023;-75
2023/08/17 01:26:02;;;;;;;12.75;3.90;;;;;;;17.63;100.00;101788.84;5095839;28;20123;-76
2023/08/17 01:28:28;;;;;;;12.13;4.38;;;;;;;17.59;100.00;101787.38;5113954;28;20042;-74
2023/08/17 01:31:11;;;;;;;13.70;3.97;;;;;;;17.58;100.00;101801.97;5092845;28;20497;-75
2023/08/17 01:33:56;;;;;;;12.98;4.22;;;;;;;17.58;100.00;101788.38;5087745;28;20035;-75
2023/08/17 01:36:46;;;;;;;10.00;4.05;;;;;;;17.55;100.00;101785.94;5110857;27;20044;-75
2023/08/17 01:39:13;;;;;;;13.68;3.80;;;;;;;17.52;100.00;101783.50;5090469;28;20024;-74
2023/08/17 01:41:42;;;;;;;10.68;3.83;;;;;;;17.49;100.00;101781.03;5088809;28;20510;-74
2023/08/17 01:44:07;;;;;;;14.65;4.03;;;;;;;17.47;100.00;101778.47;5089133;28;20028;-75
2023/08/17 01:46:33;;;;;;;11.57;4.35;;;;;;;17.47;100.00;101771.16;5091598;28;20072;-74
2023/08/17 01:48:59;;;;;;;13.05;3.90;;;;;;;17.48;100.00;101772.00;5091484;28;20072;-74
2023/08/17 01:51:25;;;;;;;11.13;3.88;;;;;;;17.46;100.00;101769.44;5111956;27;20027;-74
2023/08/17 01:53:50;;;;;;;10.68;4.13;;;;;;;17.45;100.00;101769.56;5108410;28;20031;-74
2023/08/17 01:56:15;;;;;;;11.52;3.97;;;;;;;17.45;100.00;101764.13;5089046;28;20028;-74
2023/08/17 01:58:41;;;;;;;11.50;3.70;;;;;;;17.44;100.00;101771.44;5110027;28;20016;-74
2023/08/17 02:01:06;;;;;;;13.50;4.10;;;;;;;17.47;100.00;101764.88;5111000;28;20030;-75
2023/08/17 02:03:32;;;;;;;13.93;4.00;;;;;;;17.48;100.00;101769.28;5084091;28;20047;-74
2023/08/17 02:05:58;;;;;;;9.85;3.63;;;;;;;17.49;100.00;101775.63;5089168;28;20032;-74
2023/08/17 02:08:23;;;;;;;11.88;4.13;;;;;;;17.47;100.00;101773.03;5091733;28;20026;-74
2023/08/17 02:10:49;;;;;;;10.40;3.92;;;;;;;17.49;100.00;101778.31;5109074;28;20027;-75
2023/08/17 02:13:15;;;;;;;12.40;4.07;;;;;;;17.50;100.00;101788.19;5087948;28;20027;-74
2023/08/17 02:15:40;;;;;;;14.13;4.47;;;;;;;17.51;100.00;101784.47;5090467;28;20023;-75
2023/08/17 02:18:06;;;;;;;10.05;3.65;;;;;;;17.51;100.00;101784.47;5096420;28;20026;-74
2023/08/17 02:20:31;;;;;;;12.60;4.30;;;;;;;17.52;100.00;101786.22;5096068;27;20027;-76
2023/08/17 02:22:56;;;;;;;12.60;4.43;;;;;;;17.55;100.00;101785.94;5109048;27;20099;-75
2023/08/17 02:25:22;;;;;;;15.25;4.20;;;;;;;17.54;100.00;101784.19;5112540;28;20019;-74
2023/08/17 02:27:47;;;;;;;13.38;3.95;;;;;;;17.55;100.00;101785.94;5095514;28;20047;-74
2023/08/17 02:30:13;;;;;;;11.05;3.92;;;;;;;17.54;100.00;101776.94;5107621;28;20123;-74
2023/08/17 02:32:40;;;;;;;13.10;4.43;;;;;;;17.54;100.00;101786.91;5087115;28;20130;-74
2023/08/17 02:35:06;;;;;;;14.18;4.07;;;;;;;17.52;99.55;101781.63;5112459;28;20103;-74
2023/08/17 02:37:31;;;;;;;12.18;3.75;;;;;;;17.51;100.00;101785.34;5106708;27;20128;-74
2023/08/17 02:39:57;;;;;;;11.05;3.95;;;;;;;17.51;100.00;101773.59;5095090;28;20124;-74
2023/08/17 02:42:22;;;;;;;10.07;3.50;;;;;;;17.49;100.00;101771.03;5107411;28;20036;-74
2023/08/17 02:44:48;;;;;;;9.30;3.65;;;;;;;17.46;100.00;101772.16;5093378;28;20036;-74
2023/08/17 02:47:13;;;;;;;13.20;3.83;;;;;;;17.44;100.00;101771.44;5107275;28;20028;-74
2023/08/17 02:49:39;;;;;;;15.32;4.60;;;;;;;17.44;100.00;101768.72;5107611;28;20036;-75
2023/08/17 02:52:04;;;;;;;10.85;3.67;;;;;;;17.44;100.00;101770.59;5093035;28;20497;-74
2023/08/17 02:54:31;;;;;;;10.32;3.83;;;;;;;17.43;100.00;101767.00;5086999;28;20138;-74
2023/08/17 02:56:56;;;;;;;12.00;4.72;;;;;;;17.44;100.00;101774.16;5110975;28;20035;-74
2023/08/17 02:59:22;;;;;;;15.43;4.15;;;;;;;17.42;100.00;101775.28;5113001;28;20019;-74
2023/08/17 03:01:47;;;;;;;11.10;3.80;;;;;;;17.45;100.00;101775.00;5110107;28;20028;-74
2023/08/17 03:04:13;;;;;;;11.52;4.05;;;;;;;17.46;100.00;101766.72;5091433;28;20098;-74
2023/08/17 03:06:38;;;;;;;11.80;3.72;;;;;;;17.46;100.00;101765.88;5109603;28;20432;-75
2023/08/17 03:09:04;;;;;;;9.35;3.63;;;;;;;17.46;100.00;101765.88;5107020;28;20031;-74
2023/08/17 03:11:29;;;;;;;7.60;3.20;;;;;;;17.43;100.00;101761.56;5112325;28;20024;-74
2023/08/17 03:13:59;;;;;;;10.95;3.75;;;;;;;17.41;100.00;101763.56;5092473;28;20042;-74
2023/08/17 03:16:29;;;;;;;11.57;3.65;;;;;;;17.41;100.00;101763.56;5103029;28;20035;-74
2023/08/17 03:18:55;;;;;;;12.18;3.25;;;;;;;17.40;99.32;101769.97;5083978;28;20186;-74
2023/08/17 03:21:21;;;;;;;10.10;3.90;;;;;;;17.38;98.72;101763.84;5105172;28;20056;-77
2023/08/17 03:23:46;;;;;;;10.90;3.50;;;;;;;17.38;100.00;101760.22;5092359;28;20172;-77
2023/08/17 03:26:12;;;;;;;14.43;4.28;;;;;;;17.37;100.00;101762.09;5105632;28;20027;-77
2023/08/17 03:28:37;;;;;;;11.60;4.15;;;;;;;17.35;100.00;101763.22;5104602;28;20071;-77
2023/08/17 03:31:03;;;;;;;10.05;3.78;;;;;;;17.33;100.00;101763.34;5104171;28;20054;-77
2023/08/17 03:33:29;;;;;;;11.35;4.07;;;;;;;17.29;100.00;101760.06;5109704;28;20141;-77
2023/08/17 03:35:54;;;;;;;9.93;3.60;;;;;;;17.28;99.67;101762.91;5102975;28;20399;-77
2023/08/17 03:38:19;;;;;;;9.50;4.15;;;;;;;17.28;100.00;101768.34;5102766;28;20032;-77
2023/08/17 03:40:47;;;;;;;12.73;3.90;;;;;;;17.23;100.00;101754.28;5089784;28;20046;-76
2023/08/17 03:43:12;;;;;;;9.07;4.05;;;;;;;17.22;100.00;101758.88;5085674;28;20024;-77
2023/08/17 03:45:38;;;;;;;10.63;3.45;;;;;;;17.21;100.00;101753.56;5101738;28;20031;-77
2023/08/17 03:48:04;;;;;;;12.85;4.28;;;;;;;17.17;100.00;101752.13;5108938;28;20067;-77
2023/08/17 03:50:29;;;;;;;11.23;3.83;;;;;;;17.15;100.00;101754.13;5107517;28;20465;-77
2023/08/17 03:52:54;;;;;;;12.30;4.22;;;;;;;17.14;100.00;101757.81;5092754;28;21075;-77
2023/08/17 03:55:20;;;;;;;12.43;4.68;;;;;;;17.11;100.00;101753.50;5081797;28;20074;-77
2023/08/17 03:57:45;;;;;;;12.95;3.92;;;;;;;17.09;100.00;101761.78;5109303;28;20034;-77
2023/08/17 04:00:11;;;;;;;13.80;4.32;;;;;;;17.08;100.00;101765.50;5091693;28;20024;-77
2023/08/17 04:02:37;;;;;;;13.43;4.57;;;;;;;17.06;100.00;101769.34;5106452;28;20035;-77
2023/08/17 04:05:03;;;;;;;9.65;3.65;;;;;;;17.01;100.00;101772.44;5088742;28;20031;-77
2023/08/17 04:07:28;;;;;;;12.48;4.10;;;;;;;17.01;100.00;101777.03;5115163;28;20090;-77
2023/08/17 04:09:53;;;;;;;14.00;4.22;;;;;;;16.98;100.00;101780.84;5110249;28;20028;-76
2023/08/17 04:12:19;;;;;;;12.55;4.45;;;;;;;16.97;100.00;101784.59;5108386;28;20027;-77
2023/08/17 04:14:44;;;;;;;10.38;3.60;;;;;;;16.96;100.00;101785.56;5085014;28;20020;-77
2023/08/17 04:17:11;;;;;;;15.25;4.47;;;;;;;16.92;100.00;101781.38;5113120;28;20493;-77
2023/08/17 04:19:36;;;;;;;10.77;3.80;;;;;;;16.91;100.00;101782.38;5113339;28;20516;-77
2023/08/17 04:22:02;;;;;;;10.77;3.75;;;;;;;16.91;100.00;101783.25;5114928;28;20030;-77
2023/08/17 04:24:27;;;;;;;12.88;4.20;;;;;;;16.89;100.00;101782.50;5088009;28;20566;-77
2023/08/17 04:26:52;;;;;;;12.68;4.05;;;;;;;16.88;100.00;101783.53;5111505;28;20076;-77
2023/08/17 04:29:18;;;;;;;11.48;3.80;;;;;;;16.87;100.00;101780.91;5092566;28;20611;-76
2023/08/17 04:31:43;;;;;;;13.70;4.40;;;;;;;16.86;100.00;101790.88;5091020;28;20034;-76
2023/08/17 04:34:08;;;;;;;11.70;3.75;;;;;;;16.85;100.00;101793.72;5095169;28;20063;-76
2023/08/17 04:36:34;;;;;;;11.68;3.90;;;;;;;16.84;100.00;101794.72;5107353;28;20048;-76
2023/08/17 04:38:59;;;;;;;12.32;3.95;;;;;;;16.83;100.00;101795.72;5110298;28;20035;-76
2023/08/17 04:41:24;;;;;;;13.18;4.20;;;;;;;16.82;100.00;101791.28;5106790;28;20031;-76
2023/08/17 04:43:50;;;;;;;9.98;3.80;;;;;;;16.81;100.00;101786.84;5092549;28;20123;-76
2023/08/17 04:46:15;;;;;;;9.88;3.72;;;;;;;16.82;100.00;101794.00;5086662;28;20045;-76
2023/08/17 04:48:41;;;;;;;13.65;3.67;;;;;;;16.82;100.00;101783.13;5110882;28;20031;-76
2023/08/17 04:51:06;;;;;;;12.95;3.88;;;;;;;16.82;100.00;101778.56;5091846;28;20034;-76
2023/08/17 04:53:32;;;;;;;11.32;3.78;;;;;;;16.80;100.00;101783.28;5109444;27;20020;-76
2023/08/17 04:55:58;;;;;;;13.48;4.20;;;;;;;16.79;100.00;101786.97;5100088;27;20405;-76
2023/08/17 04:58:24;;;;;;;13.52;3.88;;;;;;;16.80;100.00;101780.56;5104125;28;20024;-76
2023/08/17 05:00:49;;;;;;;10.55;3.55;;;;;;;16.80;100.00;101791.41;5094319;28;20031;-76
2023/08/17 05:03:14;;;;;;;13.68;4.10;;;;;;;16.78;100.00;101786.13;5106394;28;20106;-76
2023/08/17 05:05:39;;;;;;;8.20;3.63;;;;;;;16.80;100.00;101785.97;5086836;28;20118;-76
2023/08/17 05:08:05;;;;;;;14.82;4.57;;;;;;;16.81;100.00;101786.84;5084950;28;20019;-76
2023/08/17 05:10:31;;;;;;;7.95;3.00;;;;;;;16.78;100.00;101791.53;5112637;28;20198;-76
2023/08/17 05:12:56;;;;;;;13.57;3.90;;;;;;;16.78;100.00;101783.41;5084917;28;20028;-76
2023/08/17 05:15:21;;;;;;;10.10;3.45;;;;;;;16.80;100.00;101782.41;5109924;28;20028;-76
2023/08/17 05:17:46;;;;;;;12.82;3.88;;;;;;;16.77;100.00;101780.81;5091201;28;20426;-76
2023/08/17 05:20:15;;;;;;;12.80;3.97;;;;;;;16.80;100.00;101783.28;5101493;28;20373;-76
2023/08/17 05:22:40;;;;;;;11.70;4.00;;;;;;;16.81;100.00;101781.41;5087154;28;20024;-76
2023/08/17 05:25:08;;;;;;;12.73;3.75;;;;;;;16.81;100.00;101776.84;5105616;28;20023;-76
2023/08/17 05:27:34;;;;;;;14.88;4.05;;;;;;;16.82;100.00;101783.13;5104626;28;20042;-76
2023/08/17 05:29:59;;;;;;;14.48;4.07;;;;;;;16.83;100.00;101779.44;5106405;27;20024;-77
2023/08/17 05:32:24;;;;;;;11.40;4.18;;;;;;;16.83;100.00;101777.56;5089746;28;20523;-78
2023/08/17 05:34:50;;;;;;;12.07;4.05;;;;;;;16.86;100.00;101773.75;5105201;28;20479;-78
2023/08/17 05:37:16;;;;;;;10.40;4.10;;;;;;;16.87;100.00;101775.47;5091973;28;20051;-78
2023/08/17 05:39:41;;;;;;;16.40;4.10;;;;;;;16.88;100.00;101782.63;5110084;28;20066;-78
2023/08/17 05:42:07;;;;;;;12.68;3.80;;;;;;;16.92;100.00;101779.53;5107117;28;20506;-79
2023/08/17 05:44:32;;;;;;;10.07;3.95;;;;;;;16.93;100.00;101785.84;5086400;28;20031;-77
2023/08/17 05:46:58;;;;;;;16.98;4.90;;;;;;;16.97;100.00;101787.31;5090223;28;20600;-77
2023/08/17 05:49:23;;;;;;;13.63;4.45;;;;;;;16.98;100.00;101786.28;5110487;27;20023;-77
2023/08/17 05:51:48;;;;;;;11.57;3.92;;;;;;;16.99;100.00;101784.44;5088748;28;20031;-77
2023/08/17 05:54:14;;;;;;;15.00;3.95;;;;;;;17.02;100.00;101792.34;5087592;28;20051;-77
2023/08/17 05:56:44;;;;;;;13.18;4.53;;;;;;;17.02;100.00;101790.47;5104518;28;20031;-76
2023/08/17 05:59:10;;;;;;;14.00;4.20;;;;;;;17.01;100.00;101790.59;5089729;28;20498;-77
2023/08/17 06:01:35;;;;;;;13.50;3.80;;;;;;;17.03;100.00;101797.63;5107859;28;20023;-74
2023/08/17 06:04:01;;;;;;;10.38;3.47;;;;;;;17.08;100.00;101789.09;5083630;28;20027;-74
2023/08/17 06:06:26;;;;;;;14.80;4.60;;;;;;;17.12;100.00;101801.41;5108725;27;20020;-74
2023/08/17 06:08:52;;;;;;;12.95;4.50;;;;;;;17.20;100.00;101798.88;5105312;28;20062;-80
2023/08/17 06:11:17;;;;;;;13.10;4.00;;;;;;;17.24;100.00;101800.34;5089868;28;20027;-78
2023/08/17 06:13:42;;;;;;;11.90;4.45;;;;;;;17.27;100.00;101802.78;5088243;28;20481;-79
2023/08/17 06:16:08;;;;;;;15.80;4.43;;;;;;;17.33;100.00;101806.84;5085929;28;20032;-78
2023/08/17 06:18:34;;;;;;;12.82;4.25;;;;;;;17.37;100.00;101815.59;5083994;28;20493;-79
2023/08/17 06:20:59;;;;;;;16.08;4.97;;;;;;;17.40;100.00;101801.72;5105271;28;20054;-79
2023/08/17 06:23:25;;;;;;;12.93;3.97;;;;;;;17.37;100.00;101800.13;5103577;28;20026;-79
2023/08/17 06:25:50;;;;;;;14.32;4.32;;;;;;;17.37;100.00;101805.56;5087903;28;20034;-79
2023/08/17 06:28:15;;;;;;;14.00;4.35;;;;;;;17.41;100.00;101806.16;5108256;28;20035;-77
2023/08/17 06:30:41;;;;;;;14.88;4.85;;;;;;;17.43;100.00;101805.03;5109364;28;20524;-78
2023/08/17 06:33:06;;;;;;;11.05;4.35;;;;;;;17.43;100.00;101807.75;5090038;28;20023;-76
2023/08/17 06:35:31;;;;;;;14.25;4.93;;;;;;;17.41;100.00;101807.03;5084871;28;20050;-76
2023/08/17 06:37:57;;;;;;;16.73;5.03;;;;;;;17.41;100.00;101807.03;5094846;28;20059;-76
2023/08/17 06:40:24;;;;;;;14.82;4.80;;;;;;;17.42;100.00;101807.88;5082780;28;20023;-76
2023/08/17 06:42:49;;;;;;;15.27;4.45;;;;;;;17.41;100.00;101808.88;5107503;28;20462;-76
2023/08/17 06:45:18;;;;;;;12.55;4.30;;;;;;;17.40;100.00;101810.75;5111614;28;20031;-76
2023/08/17 06:47:45;;;;;;;13.38;4.63;;;;;;;17.43;100.00;101813.19;5111466;28;20390;-76
2023/08/17 06:50:10;;;;;;;13.77;4.50;;;;;;;17.49;100.00;101808.22;5111595;28;20428;-77
2023/08/17 06:52:36;;;;;;;18.67;4.97;;;;;;;17.54;100.00;101814.09;5111438;28;20062;-75
2023/08/17 06:55:01;;;;;;;17.58;5.28;;;;;;;17.58;100.00;101816.41;5092924;28;20043;-75
2023/08/17 06:57:27;;;;;;;17.38;5.25;;;;;;;17.60;100.00;101810.84;5111542;28;20128;-74
2023/08/17 06:59:52;;;;;;;15.10;5.05;;;;;;;17.61;100.00;101813.44;5111181;28;20031;-74
2023/08/17 07:02:17;;;;;;;19.08;5.22;;;;;;;17.64;100.00;101812.28;5111453;28;20118;-74
2023/08/17 07:04:43;;;;;;;18.60;5.25;;;;;;;17.68;100.00;101813.75;5092740;28;20012;-75
2023/08/17 07:07:08;;;;;;;12.23;4.70;;;;;;;17.71;100.00;101810.75;5093047;28;20055;-74
2023/08/17 07:09:34;;;;;;;17.02;5.05;;;;;;;17.70;100.00;101805.47;5109522;28;20110;-74
2023/08/17 07:11:59;;;;;;;14.20;5.25;;;;;;;17.70;100.00;101811.78;5092668;28;20528;-74
2023/08/17 07:14:25;;;;;;;14.90;5.00;;;;;;;17.72;100.00;101814.34;5093024;28;20026;-74
2023/08/17 07:16:50;;;;;;;13.85;4.65;;;;;;;17.72;100.00;101809.78;5111070;28;20060;-74
2023/08/17 07:19:15;;;;;;;18.73;5.65;;;;;;;17.72;100.00;101807.06;5092682;28;20024;-75
2023/08/17 07:21:41;;;;;;;16.30;5.00;;;;;;;17.74;100.00;101807.75;5092550;28;21361;-75
2023/08/17 07:24:14;;;;;;;16.65;5.10;;;;;;;17.75;100.00;101809.50;5092670;28;20028;-74
2023/08/17 07:26:40;;;;;;;17.48;5.28;;;;;;;17.76;100.00;101813.94;5110183;28;20080;-74
2023/08/17 07:29:07;;;;;;;14.23;4.85;;;;;;;17.79;100.00;101810.09;5111077;28;20023;-75
2023/08/17 07:31:33;;;;;;;14.95;5.15;;;;;;;17.81;100.00;101811.66;5097388;28;20393;-75
2023/08/17 07:33:59;;;;;;;16.63;5.53;;;;;;;17.86;100.00;101811.25;5117931;28;20019;-74
2023/08/17 07:36:25;;;;;;;12.38;4.90;;;;;;;17.86;100.00;101805.81;5117845;28;20050;-75
2023/08/17 07:38:50;;;;;;;14.90;5.18;;;;;;;17.91;100.00;101821.78;5117949;28;20094;-74
2023/08/17 07:41:15;;;;;;;14.93;5.70;;;;;;;17.94;100.00;101811.47;5099317;28;20395;-74
2023/08/17 07:43:41;;;;;;;16.67;5.13;;;;;;;17.98;100.00;101809.34;5117821;28;20431;-75
2023/08/17 07:46:06;;;;;;;20.73;6.07;;;;;;;17.99;99.75;101811.94;5099190;28;20033;-75
2023/08/17 07:48:33;;;;;;;18.33;6.03;;;;;;;18.03;99.95;101817.94;5117582;28;20067;-74
2023/08/17 07:50:59;;;;;;;16.13;5.30;;;;;;;18.06;100.00;101817.66;5099014;28;20023;-74
2023/08/17 07:53:25;;;;;;;17.42;5.32;;;;;;;18.12;100.00;101818.97;5099608;28;20063;-75
2023/08/17 07:55:50;;;;;;;16.33;4.88;;;;;;;18.18;100.00;101815.69;5117583;28;20062;-74
2023/08/17 07:58:15;;;;;;;11.48;4.82;;;;;;;18.25;100.00;101822.31;5097686;27;20022;-74
2023/08/17 08:00:41;;;;;;;16.50;5.53;;;;;;;18.31;100.00;101831.78;5106349;27;20032;-77
2023/08/17 08:03:06;;;;;;;15.85;5.50;;;;;;;18.37;100.00;101828.50;5117540;28;20031;-76
2023/08/17 08:05:31;;;;;;;18.02;6.10;;;;;;;18.43;98.44;101822.47;5098606;28;20135;-76
2023/08/17 08:07:57;;;;;;;13.70;4.93;;;;;;;18.48;99.48;101822.94;5098936;28;20366;-76
2023/08/17 08:10:22;;;;;;;20.08;5.72;;;;;;;18.48;100.00;101822.94;5117417;28;20024;-76
2023/08/17 08:12:47;;;;;;;16.40;5.10;;;;;;;18.51;99.32;101825.38;5099105;28;20048;-76
2023/08/17 08:15:13;;;;;;;14.25;4.82;;;;;;;18.50;99.02;101815.47;5098942;28;20070;-77
2023/08/17 08:17:38;;;;;;;23.60;5.82;;;;;;;18.52;98.11;101813.50;5099178;28;20031;-76
2023/08/17 08:20:04;;;;;;;18.27;6.00;;;;;;;18.56;97.99;101813.19;5117192;28;20340;-76
2023/08/17 08:22:29;;;;;;;14.25;4.93;;;;;;;18.59;97.25;101810.19;5098848;28;20459;-76
2023/08/17 08:24:55;;;;;;;15.55;5.40;;;;;;;18.62;99.42;101813.47;5098876;28;20031;-76
2023/08/17 08:27:20;;;;;;;15.75;5.22;;;;;;;18.66;97.60;101814.06;5114202;27;20027;-76
2023/08/17 08:29:46;;;;;;;15.85;5.30;;;;;;;18.68;96.55;101818.38;5081838;28;20024;-77
2023/08/17 08:32:11;;;;;;;18.02;4.85;;;;;;;18.70;97.16;101810.06;5084966;28;20020;-77
2023/08/17 08:34:37;;;;;;;16.35;5.65;;;;;;;18.71;98.14;101817.22;5096673;28;20076;-77
2023/08/17 08:37:02;;;;;;;15.68;5.75;;;;;;;18.69;97.81;101820.06;5086682;28;20044;-77
2023/08/17 08:39:28;;;;;;;20.17;5.72;;;;;;;18.71;99.30;101813.63;5075789;28;20024;-77
2023/08/17 08:41:53;;;;;;;17.98;6.25;;;;;;;18.69;96.80;101819.22;5079769;28;20067;-77
2023/08/17 08:44:19;;;;;;;14.40;5.63;;;;;;;18.66;96.34;101820.38;5088145;28;20036;-77
2023/08/17 08:46:45;;;;;;;22.13;5.85;;;;;;;18.64;99.08;101816.94;5093050;28;20062;-77
2023/08/17 08:49:11;;;;;;;18.95;5.95;;;;;;;18.67;98.92;101810.34;5088440;28;20107;-76
2023/08/17 08:51:43;;;;;;;18.30;6.30;;;;;;;18.65;98.71;101812.34;5084842;28;20020;-76
2023/08/17 08:54:13;;;;;;;16.58;5.85;;;;;;;18.64;96.97;101810.66;5091782;28;20119;-77
2023/08/17 08:56:42;;;;;;;17.40;5.35;;;;;;;18.62;98.03;101808.03;5091796;28;20023;-77
2023/08/17 08:59:08;;;;;;;15.90;5.75;;;;;;;18.63;97.96;101808.91;5093502;28;20020;-76
2023/08/17 09:01:33;;;;;;;12.65;4.80;;;;;;;18.62;98.81;101807.19;5093231;28;20020;-76
2023/08/17 09:04:02;;;;;;;16.13;5.70;;;;;;;18.61;99.26;101805.44;5091731;28;20036;-77
2023/08/17 09:06:29;;;;;;;15.40;5.72;;;;;;;18.56;96.52;101796.88;5086550;28;20078;-76
2023/08/17 09:08:56;;;;;;;14.30;5.15;;;;;;;18.52;98.51;101802.59;5078973;28;20062;-76
2023/08/17 09:11:21;;;;;;;13.48;4.80;;;;;;;18.51;98.11;101798.16;5084857;28;20107;-79
2023/08/17 09:13:47;;;;;;;21.13;5.95;;;;;;;18.53;99.21;101798.00;5081622;28;20563;-79
2023/08/17 09:16:12;;;;;;;19.77;6.18;;;;;;;18.52;98.95;101791.72;5103500;27;20475;-79
2023/08/17 09:18:38;;;;;;;16.95;5.55;;;;;;;18.52;98.61;101794.44;5095421;28;20027;-78
2023/08/17 09:21:03;;;;;;;18.70;6.15;;;;;;;18.56;100.00;101796.88;5083007;28;20380;-79
2023/08/17 09:23:28;;;;;;;19.90;6.10;;;;;;;18.56;100.00;101797.72;5090875;28;20069;-79
2023/08/17 09:26:00;;;;;;;18.33;6.45;;;;;;;18.57;99.20;101806.75;5090768;28;20062;-79
2023/08/17 09:28:25;;;;;;;17.27;6.00;;;;;;;18.54;97.30;101799.72;5090562;28;20063;-79
2023/08/17 09:30:56;;;;;;;17.02;5.75;;;;;;;18.54;97.29;101799.72;5091508;28;20032;-79
2023/08/17 09:33:27;;;;;;;22.00;6.05;;;;;;;18.54;97.56;101798.84;5081722;28;20040;-79
2023/08/17 09:35:55;;;;;;;17.52;6.35;;;;;;;18.52;97.94;101797.16;5089462;28;20083;-79
2023/08/17 09:38:21;;;;;;;18.88;6.55;;;;;;;18.52;97.49;101796.28;5092044;28;20375;-78
2023/08/17 09:40:47;;;;;;;24.83;8.48;;;;;;;18.50;95.74;101796.41;5106032;28;20016;-78
2023/08/17 09:43:14;;;;;;;20.40;7.35;;;;;;;18.52;97.88;101797.16;5109371;28;20035;-78
2023/08/17 09:45:40;;;;;;;18.48;7.38;;;;;;;18.56;98.60;101797.72;5087866;28;20039;-77
2023/08/17 09:48:08;;;;;;;20.58;7.70;;;;;;;18.62;97.57;101801.75;5094244;28;20028;-78
2023/08/17 09:50:34;;;;;;;21.08;8.55;;;;;;;18.68;97.12;101802.03;5085729;28;20031;-78
2023/08/17 09:52:59;;;;;;;21.33;7.10;;;;;;;18.69;97.02;101795.56;5093873;28;20027;-78
2023/08/17 09:55:24;;;;;;;22.95;8.60;;;;;;;18.71;97.51;101795.44;5111731;28;20039;-78
2023/08/17 09:57:51;;;;;;;21.95;7.80;;;;;;;18.74;99.91;101789.72;5092217;28;20072;-78
2023/08/17 10:00:20;;;;;;;21.17;7.55;;;;;;;18.75;98.32;101791.41;5109381;28;20779;-78
2023/08/17 10:02:49;;;;;;;23.10;8.17;;;;;;;18.74;96.64;101797.91;5086283;28;20365;-77
2023/08/17 10:05:17;;;;;;;26.20;8.52;;;;;;;18.74;96.69;101789.72;5086972;28;20273;-77
2023/08/17 10:07:48;;;;;;;24.10;8.05;;;;;;;18.72;96.81;101783.53;5100435;28;20389;-77
2023/08/17 10:10:21;;;;;;;19.38;7.15;;;;;;;18.74;96.18;101788.84;5083771;28;20447;-77
2023/08/17 10:13:08;;;;;;;23.23;9.63;;;;;;;18.75;96.62;101788.69;5076605;28;20475;-78
2023/08/17 10:15:51;;;;;;;21.95;8.48;;;;;;;18.73;96.74;101776.22;5096414;28;20039;-78
2023/08/17 10:18:34;;;;;;;22.45;9.35;;;;;;;18.74;96.83;101778.84;5102179;28;20023;-77
2023/08/17 10:21:08;;;;;;;21.50;8.63;;;;;;;18.78;97.99;101780.25;5106820;28;20495;-74
2023/08/17 10:23:34;;;;;;;22.13;8.90;;;;;;;18.78;97.30;101774.78;5098671;28;20094;-75
2023/08/17 10:26:04;;;;;;;20.20;8.82;;;;;;;18.78;97.40;101774.78;5081708;28;20127;-74
2023/08/17 10:28:31;;;;;;;22.10;8.77;;;;;;;18.76;96.07;101774.09;5108270;28;20102;-75
2023/08/17 10:30:57;;;;;;;21.63;8.32;;;;;;;18.77;97.82;101772.22;5084685;28;20058;-75
2023/08/17 10:33:24;;;;;;;20.52;9.23;;;;;;;18.78;97.65;101771.22;5111715;28;20470;-75
2023/08/17 10:35:50;;;;;;;22.90;8.23;;;;;;;18.78;100.00;101768.50;5088383;28;20096;-75
2023/08/17 10:38:17;;;;;;;22.10;8.40;;;;;;;18.78;98.29;101773.94;5111796;28;20023;-75
2023/08/17 10:40:43;;;;;;;20.27;8.13;;;;;;;18.74;96.21;101767.94;5090172;28;20028;-75
2023/08/17 10:43:08;;;;;;;21.40;8.80;;;;;;;18.77;99.84;101774.94;5102520;28;20035;-75
2023/08/17 10:45:36;;;;;;;24.10;9.02;;;;;;;18.76;98.23;101774.09;5111261;28;20019;-76
2023/08/17 10:48:05;;;;;;;22.48;8.70;;;;;;;18.78;100.00;101774.78;5092003;28;20038;-76
2023/08/17 10:50:30;;;;;;;19.67;8.40;;;;;;;18.80;100.00;101772.81;5087349;28;20126;-75
2023/08/17 10:52:55;;;;;;;23.83;9.70;;;;;;;18.81;99.94;101770.94;5109921;28;20378;-75
2023/08/17 10:55:36;;;;;;;27.13;8.73;;;;;;;18.84;99.92;101776.97;5111035;28;20512;-75
2023/08/17 10:58:02;;;;;;;21.25;8.85;;;;;;;18.84;99.37;101767.91;5086691;28;20020;-76
2023/08/17 11:00:34;;;;;;;22.58;9.13;;;;;;;18.86;98.42;101761.34;5103277;28;20024;-76
2023/08/17 11:03:05;;;;;;;23.95;10.43;;;;;;;18.89;98.66;101760.22;5111036;28;20034;-74
2023/08/17 11:05:52;;;;;;;19.55;7.78;;;;;;;18.92;99.48;101765.38;5099378;28;20028;-76
2023/08/17 11:08:34;;;;;;;21.23;8.98;;;;;;;18.95;99.59;101769.69;5103725;28;20027;-76
2023/08/17 11:11:04;;;;;;;29.58;10.43;;;;;;;18.98;98.66;101763.94;5089019;28;20036;-76